createdAt,value
2019-06-01T00:02:47.869Z,11.80
2019-06-01T00:05:44.860Z,13.00
2019-06-01T00:08:56.645Z,12.67
2019-06-01T00:11:26.565Z,13.90
2019-06-01T00:14:03.827Z,13.07
2019-06-01T00:16:35.765Z,12.57
2019-06-01T00:19:08.863Z,14.30
2019-06-01T00:21:43.230Z,12.30
2019-06-01T00:24:18.433Z,13.03
2019-06-01T00:27:00.496Z,13.43
2019-06-01T00:29:34.706Z,13.50
2019-06-01T00:32:10.978Z,12.97
2019-06-01T00:34:52.711Z,12.63
2019-06-01T00:37:24.771Z,14.17
2019-06-01T00:39:55.187Z,13.10
2019-06-01T00:42:38.161Z,14.70
2019-06-01T00:45:08.871Z,13.50
2019-06-01T00:47:38.542Z,14.90
2019-06-01T00:50:07.979Z,14.43
2019-06-01T00:52:37.652Z,14.57
2019-06-01T00:55:07.223Z,14.10
2019-06-01T00:57:45.581Z,13.57
2019-06-01T01:00:15.011Z,13.03
2019-06-01T01:02:44.087Z,13.50
2019-06-01T01:05:17.720Z,12.70
2019-06-01T01:07:46.720Z,14.23
2019-06-01T01:10:16.344Z,13.60
2019-06-01T01:13:06.673Z,13.77
2019-06-01T01:15:36.359Z,13.23
2019-06-01T01:18:07.030Z,13.73
2019-06-01T01:20:37.489Z,12.93
2019-06-01T01:23:07.870Z,14.17
2019-06-01T01:25:36.976Z,18.13
2019-06-01T01:28:06.329Z,13.30
2019-06-01T01:30:35.292Z,13.20
2019-06-01T01:33:04.555Z,13.07
2019-06-01T01:35:33.667Z,13.00
2019-06-01T01:38:02.747Z,12.30
2019-06-01T01:40:32.314Z,12.70
2019-06-01T01:43:01.506Z,12.93
2019-06-01T01:45:30.633Z,12.27
2019-06-01T01:48:01.296Z,12.50
2019-06-01T01:50:30.905Z,12.70
2019-06-01T01:53:00.159Z,12.03
2019-06-01T01:55:29.541Z,12.50
2019-06-01T01:57:59.550Z,13.27
2019-06-01T02:00:44.527Z,12.10
2019-06-01T02:03:13.852Z,13.23
2019-06-01T02:05:43.307Z,12.30
2019-06-01T02:08:12.369Z,12.10
2019-06-01T02:10:41.733Z,11.43
2019-06-01T02:13:10.976Z,12.30
2019-06-01T02:15:41.311Z,11.87
2019-06-01T02:18:10.861Z,11.43
2019-06-01T02:20:39.978Z,11.67
2019-06-01T02:23:09.118Z,12.60
2019-06-01T02:25:38.309Z,12.93
2019-06-01T02:28:08.680Z,12.77
2019-06-01T02:30:37.736Z,12.20
2019-06-01T02:33:06.934Z,12.87
2019-06-01T02:35:36.087Z,12.30
2019-06-01T02:38:05.970Z,11.70
2019-06-01T02:40:35.484Z,11.67
2019-06-01T02:43:06.572Z,13.10
2019-06-01T02:45:35.583Z,12.33
2019-06-01T02:48:06.364Z,11.33
2019-06-01T02:50:35.909Z,11.83
2019-06-01T02:53:05.766Z,12.83
2019-06-01T02:55:34.983Z,12.70
2019-06-01T02:58:04.417Z,11.50
2019-06-01T03:01:13.095Z,12.57
2019-06-01T03:03:42.610Z,14.57
2019-06-01T03:06:14.911Z,12.27
2019-06-01T03:08:45.435Z,13.33
2019-06-01T03:11:15.985Z,12.00
2019-06-01T03:13:48.731Z,12.30
2019-06-01T03:16:21.070Z,11.67
2019-06-01T03:18:52.336Z,11.77
2019-06-01T03:21:24.437Z,12.70
2019-06-01T03:23:56.835Z,12.77
2019-06-01T03:26:29.058Z,12.83
2019-06-01T03:29:03.217Z,12.33
2019-06-01T03:31:32.312Z,12.47
2019-06-01T03:34:04.427Z,12.57
2019-06-01T03:36:33.367Z,13.40
2019-06-01T03:39:04.008Z,12.90
2019-06-01T03:41:33.361Z,12.93
2019-06-01T03:44:02.884Z,12.90
2019-06-01T03:46:32.251Z,12.33
2019-06-01T03:49:03.621Z,12.80
2019-06-01T03:51:32.902Z,13.63
2019-06-01T03:54:05.022Z,13.30
2019-06-01T03:56:33.758Z,13.07
2019-06-01T03:59:03.033Z,12.93
2019-06-01T04:01:32.414Z,13.53
2019-06-01T04:04:03.039Z,14.17
2019-06-01T04:06:32.354Z,12.60
2019-06-01T04:09:01.612Z,13.43
2019-06-01T04:11:30.787Z,13.43
2019-06-01T04:13:59.836Z,13.63
2019-06-01T04:16:28.884Z,13.20
2019-06-01T04:18:58.654Z,14.17
2019-06-01T04:21:27.907Z,13.80
2019-06-01T04:23:57.177Z,14.60
2019-06-01T04:26:27.722Z,15.03
2019-06-01T04:28:57.011Z,14.63
2019-06-01T04:31:26.141Z,14.67
2019-06-01T04:33:55.454Z,15.37
2019-06-01T04:36:24.762Z,15.00
2019-06-01T04:38:56.985Z,15.43
2019-06-01T04:41:26.162Z,14.67
2019-06-01T04:43:55.310Z,16.20
2019-06-01T04:46:24.600Z,14.73
2019-06-01T04:48:54.518Z,16.33
2019-06-01T04:51:23.798Z,16.50
2019-06-01T04:53:53.795Z,16.20
2019-06-01T04:56:23.116Z,17.90
2019-06-01T04:58:52.832Z,16.07
2019-06-01T05:01:22.046Z,15.07
2019-06-01T05:03:54.253Z,25.63
2019-06-01T05:06:23.744Z,33.83
2019-06-01T05:08:53.111Z,30.43
2019-06-01T05:11:22.243Z,21.57
2019-06-01T05:13:51.294Z,17.47
2019-06-01T05:16:20.707Z,16.10
2019-06-01T05:18:50.085Z,16.27
2019-06-01T05:21:19.760Z,16.17
2019-06-01T05:23:49.272Z,15.90
2019-06-01T05:26:20.508Z,17.17
2019-06-01T05:28:50.936Z,17.37
2019-06-01T05:31:25.067Z,16.13
2019-06-01T05:33:55.859Z,17.03
2019-06-01T05:36:25.116Z,18.03
2019-06-01T05:38:54.638Z,21.90
2019-06-01T05:41:24.459Z,18.73
2019-06-01T05:43:53.860Z,18.33
2019-06-01T05:46:23.226Z,18.03
2019-06-01T05:48:52.613Z,16.00
2019-06-01T05:51:22.980Z,33.80
2019-06-01T05:53:53.818Z,33.33
2019-06-01T05:56:52.215Z,24.63
2019-06-01T06:00:17.769Z,20.77
2019-06-01T06:03:40.630Z,18.33
2019-06-01T06:06:13.774Z,17.57
2019-06-01T06:08:53.910Z,18.23
2019-06-01T06:11:38.442Z,16.03
2019-06-01T06:14:24.370Z,18.00
2019-06-01T06:17:44.812Z,18.23
2019-06-01T06:20:20.179Z,16.73
2019-06-01T06:22:58.812Z,28.13
2019-06-01T06:25:45.974Z,26.83
2019-06-01T06:28:37.528Z,22.47
2019-06-01T06:31:12.944Z,23.13
2019-06-01T06:34:10.017Z,21.37
2019-06-01T06:36:45.509Z,18.03
2019-06-01T07:01:39.067Z,18.10
2019-06-01T07:07:59.175Z,17.57
2019-06-01T07:10:29.297Z,16.73
2019-06-01T07:13:09.130Z,16.07
2019-06-01T07:15:40.088Z,15.00
2019-06-01T07:18:10.498Z,48.73
2019-06-01T07:20:46.350Z,20.90
2019-06-01T07:27:22.459Z,15.97
2019-06-01T07:30:50.435Z,14.30
2019-06-01T07:36:42.980Z,15.03
2019-06-01T07:39:18.855Z,12.70
2019-06-01T07:42:13.452Z,12.53
2019-06-01T07:44:47.968Z,12.20
2019-06-01T07:47:29.257Z,14.10
2019-06-01T07:50:28.889Z,11.70
2019-06-01T07:53:17.243Z,11.83
2019-06-01T07:55:50.871Z,18.80
2019-06-01T07:58:23.161Z,12.03
2019-06-01T08:00:54.056Z,12.90
2019-06-01T08:03:32.855Z,11.23
2019-06-01T08:06:07.358Z,11.33
2019-06-01T08:08:44.301Z,10.60
2019-06-01T08:11:16.947Z,9.97
2019-06-01T08:13:57.089Z,10.50
2019-06-01T08:16:33.886Z,9.37
2019-06-01T08:19:14.843Z,9.00
2019-06-01T08:21:46.120Z,8.47
2019-06-01T08:24:16.411Z,9.87
2019-06-01T08:26:47.835Z,9.80
2019-06-01T08:29:17.673Z,10.67
2019-06-01T08:31:47.453Z,8.63
2019-06-01T08:34:19.022Z,8.17
2019-06-01T08:36:49.189Z,8.27
2019-06-01T08:39:23.592Z,8.90
2019-06-01T08:42:00.513Z,8.87
2019-06-01T08:44:31.694Z,8.60
2019-06-01T08:47:27.856Z,11.63
2019-06-01T08:50:27.771Z,9.03
2019-06-01T08:52:59.185Z,9.33
2019-06-01T08:55:36.474Z,7.13
2019-06-01T09:02:08.800Z,6.40
2019-06-01T09:04:45.403Z,6.83
2019-06-01T09:07:24.952Z,7.03
2019-06-01T09:10:20.193Z,6.63
2019-06-01T09:13:02.952Z,8.00
2019-06-01T09:15:37.789Z,6.43
2019-06-01T09:18:13.213Z,6.97
2019-06-01T09:20:49.331Z,6.37
2019-06-01T09:23:22.522Z,6.50
2019-06-01T09:25:52.790Z,8.13
2019-06-01T09:28:29.901Z,6.53
2019-06-01T09:31:06.097Z,8.07
2019-06-01T09:33:45.094Z,7.30
2019-06-01T09:36:20.618Z,6.60
2019-06-01T09:38:57.795Z,7.37
2019-06-01T09:42:03.283Z,6.60
2019-06-01T09:44:40.495Z,7.23
2019-06-01T09:47:16.716Z,7.30
2019-06-01T09:49:51.799Z,6.57
2019-06-01T09:52:23.810Z,6.93
2019-06-01T09:55:23.414Z,7.33
2019-06-01T09:57:53.279Z,7.87
2019-06-01T10:00:30.253Z,6.30
2019-06-01T10:03:14.177Z,7.87
2019-06-01T10:06:01.310Z,7.37
2019-06-01T10:08:20.279Z,7.57
2019-06-01T10:10:50.717Z,8.03
2019-06-01T10:13:23.955Z,7.50
2019-06-01T10:15:59.385Z,25.97
2019-06-01T10:18:30.882Z,25.60
2019-06-01T10:21:02.709Z,9.67
2019-06-01T10:23:42.829Z,9.53
2019-06-01T10:26:17.695Z,7.43
2019-06-01T10:28:55.248Z,6.57
2019-06-01T10:31:34.980Z,7.07
2019-06-01T10:34:22.248Z,9.97
2019-06-01T10:36:51.950Z,6.47
2019-06-01T10:39:35.282Z,7.00
2019-06-01T10:42:21.481Z,5.80
2019-06-01T10:45:03.185Z,5.20
2019-06-01T10:50:57.073Z,10.27
2019-06-01T10:53:41.179Z,7.03
2019-06-01T10:56:12.678Z,5.73
2019-06-01T10:58:58.997Z,5.00
2019-06-01T11:01:20.396Z,5.57
2019-06-01T11:04:03.758Z,5.33
2019-06-01T11:06:48.576Z,5.27
2019-06-01T11:09:36.932Z,6.13
2019-06-01T11:12:14.752Z,5.60
2019-06-01T11:14:47.793Z,5.40
2019-06-01T11:17:22.253Z,6.60
2019-06-01T11:20:26.190Z,5.30
2019-06-01T11:23:03.204Z,4.57
2019-06-01T11:25:39.634Z,4.97
2019-06-01T11:28:22.545Z,8.13
2019-06-01T11:30:57.598Z,6.47
2019-06-01T11:33:38.249Z,5.63
2019-06-01T11:36:31.129Z,6.03
2019-06-01T11:39:16.897Z,5.03
2019-06-01T11:41:46.519Z,4.70
2019-06-01T11:44:24.386Z,5.27
2019-06-01T11:47:03.477Z,4.23
2019-06-01T11:49:38.685Z,4.10
2019-06-01T11:52:12.556Z,4.30
2019-06-01T11:54:46.190Z,4.00
2019-06-01T11:57:35.258Z,4.80
2019-06-01T12:00:19.375Z,4.47
2019-06-01T12:02:52.272Z,4.33
2019-06-01T12:05:32.068Z,4.13
2019-06-01T12:08:03.921Z,4.73
2019-06-01T12:10:41.093Z,3.80
2019-06-01T12:13:34.063Z,6.10
2019-06-01T12:16:26.066Z,3.70
2019-06-01T12:22:03.769Z,5.77
2019-06-01T12:24:48.632Z,4.23
2019-06-01T12:27:22.982Z,6.27
2019-06-01T12:30:06.226Z,4.20
2019-06-01T12:32:39.855Z,4.13
2019-06-01T12:42:44.082Z,3.50
2019-06-01T12:45:10.329Z,4.00
2019-06-01T12:47:55.139Z,5.13
2019-06-01T12:50:28.569Z,3.70
2019-06-01T12:52:58.738Z,6.20
2019-06-01T12:55:40.535Z,6.37
2019-06-01T12:58:11.403Z,3.40
2019-06-01T13:00:48.261Z,2.90
2019-06-01T13:06:24.034Z,3.20
2019-06-01T13:08:55.780Z,3.13
2019-06-01T13:11:25.592Z,3.20
2019-06-01T13:13:57.989Z,3.47
2019-06-01T13:16:33.579Z,5.03
2019-06-01T13:19:10.754Z,10.23
2019-06-01T13:22:02.859Z,3.63
2019-06-01T13:24:51.903Z,3.93
2019-06-01T13:27:27.570Z,3.20
2019-06-01T13:30:08.066Z,2.93
2019-06-01T13:32:42.564Z,3.23
2019-06-01T13:36:13.164Z,3.67
2019-06-01T13:39:23.687Z,2.63
2019-06-01T13:41:55.811Z,3.00
2019-06-01T13:44:25.471Z,2.73
2019-06-01T13:47:04.789Z,3.17
2019-06-01T13:49:48.394Z,3.30
2019-06-01T13:52:26.900Z,2.87
2019-06-01T13:54:56.614Z,2.97
2019-06-01T13:57:27.193Z,3.17
2019-06-01T13:59:57.049Z,2.70
2019-06-01T14:02:27.658Z,3.60
2019-06-01T14:04:56.741Z,2.73
2019-06-01T14:07:26.370Z,3.07
2019-06-01T14:09:55.881Z,3.30
2019-06-01T14:12:25.146Z,3.40
2019-06-01T14:14:57.158Z,3.23
2019-06-01T14:17:27.151Z,2.77
2019-06-01T14:19:56.479Z,2.63
2019-06-01T14:22:25.654Z,2.60
2019-06-01T14:25:11.863Z,2.60
2019-06-01T14:27:30.749Z,2.50
2019-06-01T14:30:01.500Z,3.33
2019-06-01T14:32:30.738Z,2.43
2019-06-01T14:34:59.843Z,2.70
2019-06-01T14:37:29.149Z,3.50
2019-06-01T14:39:59.853Z,3.07
2019-06-01T14:42:29.253Z,2.63
2019-06-01T14:44:58.588Z,2.57
2019-06-01T14:47:28.045Z,3.20
2019-06-01T14:49:57.769Z,2.67
2019-06-01T14:52:27.064Z,2.70
2019-06-01T14:54:57.985Z,2.47
2019-06-01T14:57:27.412Z,2.57
2019-06-01T14:59:56.767Z,2.30
2019-06-01T15:02:25.970Z,3.50
2019-06-01T15:04:56.412Z,2.60
2019-06-01T15:07:25.741Z,3.27
2019-06-01T15:09:55.019Z,2.63
2019-06-01T15:13:03.560Z,2.83
2019-06-01T15:15:33.603Z,2.33
2019-06-01T15:18:41.395Z,3.27
2019-06-01T15:21:11.270Z,1.90
2019-06-01T15:23:40.834Z,2.67
2019-06-01T15:26:12.280Z,2.15
2019-06-01T15:28:41.508Z,2.35
2019-06-01T15:31:11.073Z,2.77
2019-06-01T15:33:41.752Z,2.80
2019-06-01T15:36:11.324Z,2.30
2019-06-01T15:38:40.559Z,2.30
2019-06-01T15:41:13.180Z,3.23
2019-06-01T15:43:49.127Z,2.67
2019-06-01T15:46:18.184Z,2.55
2019-06-01T15:48:47.438Z,2.37
2019-06-01T15:51:17.589Z,2.53
2019-06-01T15:53:50.040Z,2.10
2019-06-01T15:56:24.558Z,5.85
2019-06-01T15:58:56.935Z,3.80
2019-06-01T16:01:38.502Z,2.72
2019-06-01T16:04:07.716Z,3.92
2019-06-01T16:06:37.500Z,2.60
2019-06-01T16:09:07.580Z,2.87
2019-06-01T16:11:37.746Z,2.42
2019-06-01T16:14:07.287Z,2.85
2019-06-01T16:16:36.418Z,2.75
2019-06-01T16:19:07.957Z,4.70
2019-06-01T16:21:37.069Z,6.35
2019-06-01T16:24:07.694Z,2.65
2019-06-01T16:26:36.751Z,3.10
2019-06-01T16:29:06.209Z,3.75
2019-06-01T16:31:35.911Z,3.58
2019-06-01T16:34:05.435Z,3.22
2019-06-01T16:36:35.233Z,2.30
2019-06-01T16:39:08.819Z,2.67
2019-06-01T16:41:37.982Z,3.00
2019-06-01T16:44:08.433Z,2.70
2019-06-01T16:46:37.774Z,3.15
2019-06-01T16:49:07.095Z,3.17
2019-06-01T16:51:56.762Z,3.58
2019-06-01T16:54:26.440Z,2.65
2019-06-01T16:56:55.968Z,2.60
2019-06-01T16:59:25.298Z,4.03
2019-06-01T17:01:54.824Z,2.60
2019-06-01T17:04:24.013Z,2.80
2019-06-01T17:06:53.546Z,4.60
2019-06-01T17:09:22.697Z,3.43
2019-06-01T17:11:52.069Z,3.80
2019-06-01T17:14:21.664Z,3.50
2019-06-01T17:16:50.989Z,2.20
2019-06-01T17:19:20.291Z,2.92
2019-06-01T17:21:49.589Z,2.47
2019-06-01T17:24:18.731Z,2.67
2019-06-01T17:26:48.345Z,4.30
2019-06-01T17:29:18.225Z,2.60
2019-06-01T17:31:54.459Z,2.73
2019-06-01T17:34:18.309Z,2.97
2019-06-01T17:36:47.517Z,2.50
2019-06-01T17:39:22.925Z,2.73
2019-06-01T17:41:52.184Z,2.47
2019-06-01T17:44:22.200Z,3.73
2019-06-01T17:46:54.056Z,2.80
2019-06-01T17:49:33.786Z,3.20
2019-06-01T17:52:03.719Z,3.30
2019-06-01T17:54:33.106Z,3.63
2019-06-01T17:57:05.024Z,2.90
2019-06-01T17:59:34.431Z,6.70
2019-06-01T18:02:05.778Z,3.43
2019-06-01T18:04:34.899Z,3.00
2019-06-01T18:07:05.677Z,3.60
2019-06-01T18:09:34.936Z,4.63
2019-06-01T18:12:03.997Z,2.90
2019-06-01T18:14:33.502Z,2.80
2019-06-01T18:17:04.023Z,2.80
2019-06-01T18:19:34.737Z,3.43
2019-06-01T18:22:04.762Z,3.20
2019-06-01T18:24:34.354Z,3.47
2019-06-01T18:27:04.338Z,4.83
2019-06-01T18:29:33.644Z,3.90
2019-06-01T18:32:03.340Z,3.97
2019-06-01T18:34:32.559Z,3.70
2019-06-01T18:37:03.051Z,3.20
2019-06-01T18:39:35.285Z,3.50
2019-06-01T18:42:04.657Z,3.10
2019-06-01T18:44:35.834Z,5.63
2019-06-01T18:47:05.709Z,4.77
2019-06-01T18:49:35.636Z,5.20
2019-06-01T18:52:08.548Z,5.77
2019-06-01T18:54:43.601Z,5.20
2019-06-01T18:57:19.353Z,7.27
2019-06-01T18:59:46.863Z,8.87
2019-06-01T19:02:16.251Z,6.70
2019-06-01T19:04:45.982Z,4.40
2019-06-01T19:07:17.170Z,5.07
2019-06-01T19:09:46.907Z,5.13
2019-06-01T19:12:16.267Z,4.40
2019-06-01T19:14:46.115Z,5.17
2019-06-01T19:17:16.567Z,5.27
2019-06-01T19:19:47.776Z,5.30
2019-06-01T19:22:20.166Z,4.83
2019-06-01T19:24:49.174Z,5.07
2019-06-01T19:27:18.362Z,4.83
2019-06-01T19:29:49.403Z,7.10
2019-06-01T19:32:21.201Z,7.27
2019-06-01T19:34:49.963Z,9.03
2019-06-01T19:37:21.244Z,11.23
2019-06-01T19:39:51.668Z,10.50
2019-06-01T19:42:23.893Z,11.10
2019-06-01T19:44:53.273Z,9.80
2019-06-01T19:47:24.287Z,10.73
2019-06-01T19:49:53.780Z,13.13
2019-06-01T19:52:23.375Z,13.40
2019-06-01T19:54:52.699Z,19.40
2019-06-01T19:57:23.900Z,17.90
2019-06-01T19:59:53.658Z,25.63
2019-06-01T20:02:33.282Z,32.20
2019-06-01T20:04:54.903Z,26.27
2019-06-01T20:07:25.393Z,19.33
2019-06-01T20:09:54.925Z,16.73
2019-06-01T20:12:25.815Z,14.00
2019-06-01T20:14:56.904Z,13.37
2019-06-01T20:17:26.713Z,16.03
2019-06-01T20:19:56.594Z,21.17
2019-06-01T20:22:27.624Z,17.03
2019-06-01T20:24:56.938Z,19.10
2019-06-01T20:27:31.217Z,21.40
2019-06-01T20:30:01.059Z,15.13
2019-06-01T20:32:30.373Z,17.83
2019-06-01T20:35:04.374Z,17.20
2019-06-01T20:37:35.145Z,12.50
2019-06-01T20:40:04.875Z,12.90
2019-06-01T20:42:34.245Z,9.83
2019-06-01T20:45:16.597Z,9.17
2019-06-01T20:47:46.024Z,8.70
2019-06-01T20:50:16.704Z,8.77
2019-06-01T20:52:46.026Z,47.30
2019-06-01T20:55:17.379Z,31.80
2019-06-01T20:57:48.116Z,14.23
2019-06-01T21:00:17.916Z,10.70
2019-06-01T21:02:47.407Z,9.67
2019-06-01T21:05:17.779Z,8.17
2019-06-01T21:07:50.172Z,10.30
2019-06-01T21:10:22.177Z,12.57
2019-06-01T21:12:51.902Z,15.30
2019-06-01T21:15:21.759Z,18.40
2019-06-01T21:17:53.959Z,13.40
2019-06-01T21:20:28.285Z,9.57
2019-06-01T21:22:54.722Z,11.53
2019-06-01T21:25:37.608Z,15.77
2019-06-01T21:28:23.627Z,11.63
2019-06-01T21:30:53.170Z,9.87
2019-06-01T21:33:25.380Z,9.47
2019-06-01T21:35:56.553Z,13.20
2019-06-01T21:38:29.690Z,14.43
2019-06-01T21:41:01.160Z,12.70
2019-06-01T21:43:35.144Z,10.40
2019-06-01T21:46:21.648Z,9.10
2019-06-01T21:48:53.470Z,8.70
2019-06-01T21:51:26.039Z,9.57
2019-06-01T21:53:56.494Z,10.13
2019-06-01T21:56:26.695Z,22.67
2019-06-01T21:58:57.970Z,28.07
2019-06-01T22:01:33.045Z,18.93
2019-06-01T22:04:27.925Z,13.00
2019-06-01T22:07:03.515Z,9.67
2019-06-01T22:09:33.748Z,9.73
2019-06-01T22:12:07.736Z,10.87
2019-06-01T22:14:37.973Z,9.13
2019-06-01T22:17:10.694Z,10.23
2019-06-01T22:19:39.890Z,9.63
2019-06-01T22:22:08.980Z,9.27
2019-06-01T22:24:38.369Z,9.97
2019-06-01T22:27:07.611Z,9.23
2019-06-01T22:29:37.199Z,9.30
2019-06-01T22:32:06.428Z,9.13
2019-06-01T22:34:37.213Z,9.50
2019-06-01T22:37:06.502Z,12.30
2019-06-01T22:39:35.798Z,13.60
2019-06-01T22:42:05.104Z,13.60
2019-06-01T22:44:38.220Z,28.30
2019-06-01T22:47:12.210Z,18.63
2019-06-01T22:49:41.403Z,13.17
2019-06-01T22:52:10.836Z,10.30
2019-06-01T22:54:44.781Z,9.40
2019-06-01T22:57:14.085Z,11.43
2019-06-01T22:59:43.202Z,10.67
2019-06-01T23:02:14.077Z,10.50
2019-06-01T23:04:43.342Z,11.27
2019-06-01T23:07:12.493Z,12.37
2019-06-01T23:09:42.710Z,10.70
2019-06-01T23:12:11.939Z,10.70
2019-06-01T23:14:41.044Z,14.43
2019-06-01T23:17:10.257Z,14.17
2019-06-01T23:19:39.702Z,10.93
2019-06-01T23:22:09.014Z,11.53
2019-06-01T23:24:38.299Z,11.07
2019-06-01T23:27:22.053Z,11.43
2019-06-01T23:29:51.460Z,11.13
2019-06-01T23:32:24.498Z,11.10
2019-06-01T23:34:56.611Z,11.07
2019-06-01T23:37:26.688Z,11.40
2019-06-01T23:39:56.226Z,12.70
2019-06-01T23:42:26.754Z,11.93
2019-06-01T23:44:56.403Z,10.60
2019-06-01T23:47:29.353Z,10.73
2019-06-01T23:49:58.940Z,11.37
2019-06-01T23:52:29.604Z,10.73
2019-06-01T23:55:03.674Z,11.43
2019-06-01T23:57:34.087Z,11.20
